createdAt,value
2018-05-24T00:01:26.785Z,52.40
2018-05-24T00:03:55.807Z,52.90
2018-05-24T00:06:24.055Z,52.20
2018-05-24T00:08:53.035Z,52.20
2018-05-24T00:11:21.276Z,52.10
2018-05-24T00:13:49.499Z,52.20
2018-05-24T00:16:18.498Z,52.00
2018-05-24T00:18:47.473Z,52.10
2018-05-24T00:21:15.712Z,52.00
2018-05-24T00:23:43.931Z,52.10
2018-05-24T00:26:12.168Z,52.10
2018-05-24T00:28:40.431Z,52.10
2018-05-24T00:31:08.663Z,52.10
2018-05-24T00:33:36.893Z,52.20
2018-05-24T00:36:05.135Z,52.30
2018-05-24T00:38:34.107Z,52.30
2018-05-24T00:41:03.110Z,52.30
2018-05-24T00:43:32.118Z,52.30
2018-05-24T00:46:00.362Z,52.30
2018-05-24T00:48:28.602Z,52.20
2018-05-24T00:50:56.832Z,52.10
2018-05-24T00:53:25.827Z,52.20
2018-05-24T00:55:54.848Z,52.30
2018-05-24T00:58:23.074Z,52.30
2018-05-24T01:00:51.287Z,52.30
2018-05-24T01:03:19.546Z,52.40
2018-05-24T01:05:48.546Z,52.60
2018-05-24T01:08:17.528Z,52.80
2018-05-24T01:10:46.507Z,52.60
2018-05-24T01:13:14.759Z,52.60
2018-05-24T01:15:43.025Z,52.60
2018-05-24T01:18:11.228Z,52.60
2018-05-24T01:20:39.440Z,52.60
2018-05-24T01:23:07.670Z,52.50
2018-05-24T01:25:35.914Z,52.40
2018-05-24T01:28:04.154Z,52.50
2018-05-24T01:30:32.376Z,52.50
2018-05-24T01:33:00.600Z,52.50
2018-05-24T01:35:28.835Z,52.60
2018-05-24T01:37:57.041Z,52.80
2018-05-24T01:40:25.280Z,52.90
2018-05-24T01:42:53.517Z,53.00
2018-05-24T01:45:22.506Z,53.10
2018-05-24T01:47:51.515Z,53.30
2018-05-24T01:50:19.731Z,53.20
2018-05-24T01:52:47.965Z,53.60
2018-05-24T01:55:16.185Z,53.70
2018-05-24T01:57:44.407Z,53.80
2018-05-24T02:00:12.630Z,53.70
2018-05-24T02:02:40.886Z,53.50
2018-05-24T02:05:09.091Z,53.50
2018-05-24T02:07:37.309Z,53.60
2018-05-24T02:10:06.324Z,53.70
2018-05-24T02:12:34.568Z,53.70
2018-05-24T02:15:03.547Z,54.30
2018-05-24T02:17:31.795Z,54.20
2018-05-24T02:20:00.006Z,54.30
2018-05-24T02:22:28.252Z,54.30
2018-05-24T02:24:56.480Z,54.30
2018-05-24T02:27:24.719Z,54.50
2018-05-24T02:29:52.949Z,54.30
2018-05-24T02:32:21.186Z,54.30
2018-05-24T02:34:49.457Z,54.30
2018-05-24T02:37:17.649Z,54.30
2018-05-24T02:39:46.657Z,54.40
2018-05-24T02:42:14.883Z,54.30
2018-05-24T02:44:43.109Z,54.30
2018-05-24T02:47:12.110Z,54.30
2018-05-24T02:49:40.343Z,54.30
2018-05-24T02:52:08.573Z,54.40
2018-05-24T02:54:36.831Z,54.40
2018-05-24T02:57:05.064Z,54.40
2018-05-24T02:59:33.274Z,54.60
2018-05-24T03:02:01.565Z,54.60
2018-05-24T03:04:29.775Z,54.70
2018-05-24T03:06:58.023Z,54.70
2018-05-24T03:09:26.242Z,54.60
2018-05-24T03:11:54.507Z,54.70
2018-05-24T03:14:22.747Z,54.70
2018-05-24T03:16:51.717Z,54.70
2018-05-24T03:19:20.710Z,54.70
2018-05-24T03:21:49.695Z,54.70
2018-05-24T03:24:18.711Z,54.70
2018-05-24T03:26:46.933Z,54.60
2018-05-24T03:29:15.162Z,54.60
2018-05-24T03:31:44.140Z,54.80
2018-05-24T03:34:13.145Z,54.90
2018-05-24T03:36:42.129Z,54.90
2018-05-24T03:39:11.136Z,54.90
2018-05-24T03:41:40.103Z,54.90
2018-05-24T03:44:08.329Z,54.90
2018-05-24T03:46:36.545Z,54.90
2018-05-24T03:49:04.785Z,54.90
2018-05-24T03:51:33.007Z,54.90
2018-05-24T03:54:01.234Z,54.80
2018-05-24T03:56:29.478Z,54.90
2018-05-24T04:02:20.523Z,55.40
2018-05-24T04:04:51.158Z,55.40
2018-05-24T04:07:19.396Z,55.50
2018-05-24T04:09:47.633Z,55.40
2018-05-24T04:12:15.893Z,56.10
2018-05-24T04:14:44.128Z,55.40
2018-05-24T04:17:13.134Z,55.50
2018-05-24T04:19:42.151Z,55.50
2018-05-24T04:22:10.359Z,55.40
2018-05-24T04:24:38.583Z,55.40
2018-05-24T04:27:06.873Z,55.40
2018-05-24T04:29:35.041Z,55.40
2018-05-24T04:32:03.293Z,55.60
2018-05-24T04:34:32.338Z,55.60
2018-05-24T04:37:00.551Z,55.60
2018-05-24T04:39:28.788Z,55.90
2018-05-24T04:41:57.043Z,55.90
2018-05-24T04:44:26.015Z,56.00
2018-05-24T04:46:57.899Z,55.50
2018-05-24T04:49:26.028Z,55.90
2018-05-24T04:51:54.295Z,56.00
2018-05-24T04:54:22.494Z,56.10
2018-05-24T04:56:50.700Z,56.20
2018-05-24T04:59:18.949Z,56.40
2018-05-24T05:01:47.942Z,56.90
2018-05-24T05:04:16.927Z,56.70
2018-05-24T05:06:45.155Z,56.70
2018-05-24T05:09:13.391Z,57.80
2018-05-24T05:11:42.401Z,56.90
2018-05-24T05:14:10.661Z,56.80
2018-05-24T05:16:39.644Z,56.80
2018-05-24T05:19:07.997Z,56.80
2018-05-24T05:21:36.203Z,56.90
2018-05-24T05:24:05.183Z,57.00
2018-05-24T05:26:33.420Z,56.90
2018-05-24T05:29:01.643Z,57.00
2018-05-24T05:31:29.862Z,56.90
2018-05-24T05:33:58.100Z,57.00
2018-05-24T05:36:27.139Z,56.80
2018-05-24T05:38:55.396Z,56.80
2018-05-24T05:41:23.739Z,56.70
2018-05-24T05:43:51.934Z,56.70
2018-05-24T05:46:20.945Z,56.80
2018-05-24T05:48:49.190Z,56.80
2018-05-24T05:51:17.410Z,56.90
2018-05-24T05:53:45.644Z,57.00
2018-05-24T05:56:13.872Z,57.00
2018-05-24T05:58:42.112Z,56.70
2018-05-24T06:01:11.111Z,57.00
2018-05-24T06:03:39.332Z,57.00
2018-05-24T06:06:07.575Z,56.90
2018-05-24T06:08:35.861Z,56.80
2018-05-24T06:11:04.085Z,57.00
2018-05-24T06:13:32.302Z,57.00
2018-05-24T06:16:00.542Z,57.00
2018-05-24T06:18:28.780Z,57.00
2018-05-24T06:20:57.030Z,57.00
2018-05-24T06:23:25.269Z,57.10
2018-05-24T06:25:53.578Z,57.20
2018-05-24T06:28:21.899Z,57.30
2018-05-24T06:30:50.036Z,57.20
2018-05-24T06:33:18.309Z,56.90
2018-05-24T06:35:46.584Z,57.10
2018-05-24T06:38:14.832Z,57.20
2018-05-24T06:40:43.845Z,57.50
2018-05-24T06:43:12.088Z,57.50
2018-05-24T06:45:40.337Z,57.30
2018-05-24T06:48:08.543Z,57.60
2018-05-24T06:50:36.791Z,57.70
2018-05-24T06:53:05.008Z,57.50
2018-05-24T06:55:33.998Z,57.30
2018-05-24T06:58:03.037Z,57.70
2018-05-24T07:00:31.273Z,57.30
2018-05-24T07:03:00.273Z,57.40
2018-05-24T07:05:29.271Z,57.50
2018-05-24T07:07:58.253Z,57.60
2018-05-24T07:10:27.400Z,57.50
2018-05-24T07:12:55.640Z,57.50
2018-05-24T07:15:24.625Z,57.50
2018-05-24T07:17:53.633Z,57.30
2018-05-24T07:20:22.656Z,57.50
2018-05-24T07:22:50.860Z,57.50
2018-05-24T07:25:19.083Z,57.60
2018-05-24T07:27:47.321Z,57.60
2018-05-24T07:30:15.535Z,57.30
2018-05-24T07:32:43.812Z,57.50
2018-05-24T07:35:12.026Z,57.10
2018-05-24T07:37:40.274Z,57.00
2018-05-24T07:40:08.483Z,57.00
2018-05-24T07:42:36.712Z,56.70
2018-05-24T07:45:04.950Z,57.00
2018-05-24T07:47:33.210Z,56.70
2018-05-24T07:50:01.483Z,56.30
2018-05-24T07:52:29.737Z,56.20
2018-05-24T07:54:57.975Z,56.10
2018-05-24T07:57:26.988Z,56.00
2018-05-24T07:59:55.240Z,56.00
2018-05-24T08:02:24.232Z,55.70
2018-05-24T08:04:52.449Z,55.70
2018-05-24T08:07:20.772Z,55.50
2018-05-24T08:09:49.018Z,55.20
2018-05-24T08:12:17.242Z,55.10
2018-05-24T08:14:46.302Z,55.50
2018-05-24T08:17:15.275Z,55.30
2018-05-24T08:19:43.513Z,55.20
2018-05-24T08:22:12.546Z,55.30
2018-05-24T08:24:40.784Z,55.30
2018-05-24T08:27:09.779Z,55.00
2018-05-24T08:29:38.780Z,55.00
2018-05-24T08:32:06.996Z,55.00
2018-05-24T08:34:35.243Z,54.90
2018-05-24T08:37:03.488Z,54.40
2018-05-24T08:39:31.713Z,54.00
2018-05-24T08:42:00.029Z,54.20
2018-05-24T08:44:28.265Z,54.10
2018-05-24T08:46:56.527Z,53.90
2018-05-24T08:49:24.739Z,54.20
2018-05-24T08:51:52.986Z,54.10
2018-05-24T08:54:21.221Z,53.30
2018-05-24T08:56:49.473Z,53.40
2018-05-24T08:59:17.724Z,53.00
2018-05-24T09:01:46.147Z,53.60
2018-05-24T09:04:14.355Z,53.40
2018-05-24T09:06:42.586Z,53.20
2018-05-24T09:09:10.942Z,52.80
2018-05-24T09:11:39.165Z,53.10
2018-05-24T09:14:08.177Z,52.20
2018-05-24T09:16:36.415Z,52.20
2018-05-24T09:19:04.658Z,52.50
2018-05-24T09:21:32.876Z,52.70
2018-05-24T09:24:01.111Z,52.60
2018-05-24T09:26:29.321Z,52.30
2018-05-24T09:28:57.558Z,51.60
2018-05-24T09:31:25.806Z,52.40
2018-05-24T09:33:54.110Z,51.50
2018-05-24T09:36:22.367Z,51.40
2018-05-24T09:38:51.345Z,50.00
2018-05-24T09:41:20.344Z,49.00
2018-05-24T09:43:48.609Z,49.00
2018-05-24T09:46:17.609Z,49.50
2018-05-24T09:48:47.496Z,49.50
2018-05-24T09:51:15.732Z,49.50
2018-05-24T09:53:43.976Z,49.70
2018-05-24T09:56:12.968Z,49.30
2018-05-24T09:58:41.211Z,49.20
2018-05-24T10:01:09.456Z,49.30
2018-05-24T10:03:38.447Z,49.20
2018-05-24T10:06:07.782Z,49.10
2018-05-24T10:08:36.042Z,49.20
2018-05-24T10:11:04.261Z,48.70
2018-05-24T10:13:33.276Z,48.60
2018-05-24T10:16:01.514Z,48.60
2018-05-24T10:18:29.733Z,48.40
2018-05-24T10:20:57.998Z,48.50
2018-05-24T10:23:26.562Z,48.80
2018-05-24T10:25:54.779Z,49.30
2018-05-24T10:28:23.009Z,49.30
2018-05-24T10:30:51.260Z,49.20
2018-05-24T10:33:19.475Z,48.90
2018-05-24T10:35:47.768Z,48.70
2018-05-24T10:38:15.993Z,47.70
2018-05-24T10:40:44.241Z,47.30
2018-05-24T10:43:12.479Z,47.50
2018-05-24T10:45:41.474Z,47.90
2018-05-24T10:48:10.460Z,48.10
2018-05-24T10:50:39.467Z,47.90
2018-05-24T10:53:07.683Z,47.80
2018-05-24T10:55:36.025Z,47.80
2018-05-24T10:58:04.243Z,48.20
2018-05-24T11:00:32.455Z,48.40
2018-05-24T11:03:01.470Z,48.20
2018-05-24T11:05:29.682Z,48.20
2018-05-24T11:07:58.698Z,48.40
2018-05-24T11:10:26.953Z,48.40
2018-05-24T11:12:55.175Z,47.60
2018-05-24T11:15:24.167Z,48.00
2018-05-24T11:17:53.189Z,48.00
2018-05-24T11:20:21.431Z,47.90
2018-05-24T11:22:50.415Z,47.90
2018-05-24T11:25:18.742Z,47.90
2018-05-24T11:27:46.879Z,48.50
2018-05-24T11:30:15.959Z,47.10
2018-05-24T11:32:44.166Z,47.10
2018-05-24T11:35:12.409Z,46.60
2018-05-24T11:37:40.650Z,46.90
2018-05-24T11:40:08.886Z,46.90
2018-05-24T11:42:37.884Z,46.30
2018-05-24T11:45:06.903Z,46.40
2018-05-24T11:47:35.130Z,46.40
2018-05-24T11:50:03.447Z,46.50
2018-05-24T11:52:31.668Z,46.30
2018-05-24T11:54:59.919Z,45.80
2018-05-24T11:57:28.152Z,45.80
2018-05-24T11:59:57.211Z,45.00
2018-05-24T12:02:25.460Z,44.90
2018-05-24T12:04:53.680Z,45.00
2018-05-24T12:07:21.895Z,45.50
2018-05-24T12:09:50.165Z,45.20
2018-05-24T12:12:19.122Z,45.60
2018-05-24T12:14:47.436Z,45.60
2018-05-24T12:17:15.778Z,45.00
2018-05-24T12:19:43.980Z,44.50
2018-05-24T12:22:12.241Z,44.70
2018-05-24T12:24:41.235Z,44.20
2018-05-24T12:27:09.521Z,44.10
2018-05-24T12:29:38.597Z,45.10
2018-05-24T12:32:06.809Z,44.80
2018-05-24T12:34:35.026Z,44.10
2018-05-24T12:37:03.263Z,43.00
2018-05-24T12:39:31.500Z,42.50
2018-05-24T12:41:59.725Z,43.10
2018-05-24T12:44:28.034Z,42.80
2018-05-24T12:46:56.245Z,41.80
2018-05-24T12:49:25.322Z,42.30
2018-05-24T12:51:53.499Z,42.30
2018-05-24T12:54:21.726Z,42.10
2018-05-24T12:56:49.956Z,42.30
2018-05-24T12:59:18.936Z,42.10
2018-05-24T13:01:48.711Z,41.30
2018-05-24T13:04:16.925Z,41.30
2018-05-24T13:06:45.149Z,41.50
2018-05-24T13:09:13.379Z,41.50
2018-05-24T13:11:41.621Z,41.60
2018-05-24T13:14:10.805Z,40.90
2018-05-24T13:16:38.944Z,41.20
2018-05-24T13:19:07.949Z,41.40
2018-05-24T13:21:36.165Z,41.40
2018-05-24T13:24:04.478Z,41.60
2018-05-24T13:26:32.665Z,41.60
2018-05-24T13:29:01.675Z,41.30
2018-05-24T13:31:29.883Z,41.20
2018-05-24T13:33:58.123Z,41.40
2018-05-24T13:36:26.354Z,41.70
2018-05-24T13:38:54.585Z,41.60
2018-05-24T13:41:22.826Z,41.70
2018-05-24T13:43:51.047Z,41.80
2018-05-24T13:46:19.271Z,41.20
2018-05-24T13:48:47.534Z,41.30
2018-05-24T13:51:15.761Z,42.00
2018-05-24T13:53:43.972Z,42.60
2018-05-24T13:56:12.819Z,41.60
2018-05-24T13:58:41.078Z,40.70
2018-05-24T14:01:10.107Z,40.70
2018-05-24T14:03:38.333Z,40.70
2018-05-24T14:06:06.570Z,40.70
2018-05-24T14:08:34.785Z,40.90
2018-05-24T14:11:03.065Z,41.10
2018-05-24T14:13:31.281Z,41.40
2018-05-24T14:15:59.523Z,40.80
2018-05-24T14:18:28.522Z,40.90
2018-05-24T14:20:57.565Z,40.20
2018-05-24T14:23:25.783Z,40.10
2018-05-24T14:25:53.996Z,40.00
2018-05-24T14:28:22.234Z,40.40
2018-05-24T14:30:50.452Z,40.10
2018-05-24T14:33:18.705Z,40.10
2018-05-24T14:35:48.019Z,40.10
2018-05-24T14:38:16.264Z,40.10
2018-05-24T14:40:44.529Z,40.00
2018-05-24T14:43:12.765Z,40.40
2018-05-24T14:45:40.996Z,40.30
2018-05-24T14:48:10.011Z,39.70
2018-05-24T14:50:38.229Z,39.40
2018-05-24T14:53:06.448Z,39.50
2018-05-24T14:55:35.451Z,40.20
2018-05-24T14:58:04.468Z,39.90
2018-05-24T15:00:32.709Z,39.90
2018-05-24T15:03:01.696Z,39.60
2018-05-24T15:05:30.753Z,39.60
2018-05-24T15:07:59.712Z,39.40
2018-05-24T15:10:28.261Z,39.30
2018-05-24T15:12:56.458Z,39.50
2018-05-24T15:15:25.465Z,39.60
2018-05-24T15:17:53.692Z,39.50
2018-05-24T15:20:21.933Z,39.60
2018-05-24T15:22:50.161Z,39.10
2018-05-24T15:25:18.464Z,39.50
2018-05-24T15:27:47.434Z,39.40
2018-05-24T15:30:15.650Z,39.40
2018-05-24T15:32:43.897Z,38.80
2018-05-24T15:35:12.883Z,38.70
2018-05-24T15:37:41.892Z,38.50
2018-05-24T15:40:10.882Z,39.60
2018-05-24T15:42:39.889Z,38.80
2018-05-24T15:45:08.103Z,38.70
2018-05-24T15:47:36.405Z,38.80
2018-05-24T15:50:04.587Z,38.70
2018-05-24T15:52:32.829Z,38.80
2018-05-24T15:55:01.068Z,38.20
2018-05-24T15:57:29.348Z,37.30
2018-05-24T15:59:57.568Z,37.50
2018-05-24T16:02:25.876Z,37.80
2018-05-24T16:04:54.090Z,37.30
2018-05-24T16:07:22.315Z,37.10
2018-05-24T16:09:50.980Z,37.50
2018-05-24T16:12:19.164Z,36.80
2018-05-24T16:14:47.404Z,36.70
2018-05-24T16:17:16.155Z,36.90
2018-05-24T16:19:45.171Z,37.10
2018-05-24T16:22:13.413Z,37.00
2018-05-24T16:24:42.431Z,37.10
2018-05-24T16:27:10.643Z,36.90
2018-05-24T16:29:38.887Z,37.20
2018-05-24T16:32:07.117Z,37.30
2018-05-24T16:34:35.440Z,36.90
2018-05-24T16:37:03.699Z,37.30
2018-05-24T16:39:32.681Z,36.80
2018-05-24T16:42:00.931Z,36.70
2018-05-24T16:44:29.139Z,37.20
2018-05-24T16:46:58.139Z,37.30
2018-05-24T16:49:27.128Z,37.50
2018-05-24T16:51:56.142Z,38.10
2018-05-24T16:54:24.459Z,37.30
2018-05-24T16:56:52.631Z,37.30
2018-05-24T16:59:20.906Z,37.90
2018-05-24T17:01:49.128Z,37.50
2018-05-24T17:04:18.128Z,37.60
2018-05-24T17:06:47.108Z,36.90
2018-05-24T17:09:15.473Z,36.80
2018-05-24T17:11:43.702Z,36.20
2018-05-24T17:14:11.970Z,36.40
2018-05-24T17:16:40.219Z,36.30
2018-05-24T17:19:08.433Z,36.60
2018-05-24T17:21:36.652Z,37.10
2018-05-24T17:24:04.884Z,37.10
2018-05-24T17:26:33.141Z,36.40
2018-05-24T17:29:01.351Z,36.00
2018-05-24T17:31:29.598Z,36.30
2018-05-24T17:33:57.879Z,36.40
2018-05-24T17:36:26.103Z,36.40
2018-05-24T17:38:54.341Z,36.30
2018-05-24T17:41:22.561Z,36.40
2018-05-24T17:43:50.814Z,36.60
2018-05-24T17:46:19.032Z,36.90
2018-05-24T17:48:48.012Z,36.40
2018-05-24T17:51:16.257Z,36.30
2018-05-24T17:53:44.481Z,36.80
2018-05-24T17:56:13.504Z,37.30
2018-05-24T17:58:41.765Z,37.20
2018-05-24T18:01:10.494Z,37.30
2018-05-24T18:03:38.758Z,36.90
2018-05-24T18:06:06.999Z,36.90
2018-05-24T18:08:36.005Z,37.40
2018-05-24T18:11:04.217Z,37.40
2018-05-24T18:13:32.520Z,37.30
2018-05-24T18:16:00.708Z,37.20
2018-05-24T18:18:29.717Z,38.00
2018-05-24T18:20:57.946Z,38.00
2018-05-24T18:23:26.171Z,37.80
2018-05-24T18:25:54.391Z,37.90
2018-05-24T18:28:22.679Z,37.80
2018-05-24T18:30:50.919Z,38.10
2018-05-24T18:33:19.169Z,38.10
2018-05-24T18:35:48.171Z,38.00
2018-05-24T18:38:16.383Z,37.90
2018-05-24T18:40:45.305Z,38.80
2018-05-24T18:43:13.531Z,38.80
2018-05-24T18:45:41.764Z,38.20
2018-05-24T18:48:10.759Z,38.20
2018-05-24T18:50:39.792Z,38.10
2018-05-24T18:53:08.005Z,38.10
2018-05-24T18:55:36.224Z,38.10
2018-05-24T18:58:05.233Z,38.40
2018-05-24T19:00:33.472Z,38.40
2018-05-24T19:03:01.705Z,38.50
2018-05-24T19:05:29.979Z,38.60
2018-05-24T19:07:58.588Z,38.80
2018-05-24T19:10:26.812Z,38.80
2018-05-24T19:12:55.049Z,38.90
2018-05-24T19:15:23.283Z,39.00
2018-05-24T19:17:51.531Z,39.10
2018-05-24T19:20:20.553Z,39.20
2018-05-24T19:22:48.825Z,39.20
2018-05-24T19:25:17.051Z,39.50
2018-05-24T19:27:45.274Z,39.60
2018-05-24T19:30:13.519Z,39.80
2018-05-24T19:32:42.505Z,39.90
2018-05-24T19:35:10.728Z,39.90
2018-05-24T19:37:38.966Z,39.90
2018-05-24T19:40:07.980Z,40.20
2018-05-24T19:42:36.183Z,40.10
2018-05-24T19:45:04.418Z,40.10
2018-05-24T19:47:33.451Z,40.30
2018-05-24T19:50:01.675Z,40.30
2018-05-24T19:52:29.917Z,40.30
2018-05-24T19:54:58.134Z,40.40
2018-05-24T19:57:27.131Z,40.90
2018-05-24T19:59:56.176Z,41.00
2018-05-24T20:02:25.120Z,41.00
2018-05-24T20:04:54.206Z,41.10
2018-05-24T20:07:22.446Z,41.00
2018-05-24T20:09:50.704Z,40.90
2018-05-24T20:12:18.949Z,41.30
2018-05-24T20:14:47.978Z,41.30
2018-05-24T20:17:16.215Z,41.30
2018-05-24T20:19:45.241Z,41.60
2018-05-24T20:22:14.012Z,41.60
2018-05-24T20:24:42.339Z,41.70
2018-05-24T20:27:10.578Z,41.80
2018-05-24T20:29:38.923Z,41.80
2018-05-24T20:32:07.956Z,42.10
2018-05-24T20:34:36.203Z,42.00
2018-05-24T20:37:05.224Z,42.20
2018-05-24T20:39:34.043Z,42.10
2018-05-24T20:42:02.283Z,42.30
2018-05-24T20:44:30.551Z,42.30
2018-05-24T20:46:58.799Z,42.50
2018-05-24T20:49:27.070Z,42.60
2018-05-24T20:51:55.290Z,42.80
2018-05-24T20:54:23.785Z,42.70
2018-05-24T20:56:52.794Z,42.90
2018-05-24T20:59:21.065Z,42.90
2018-05-24T21:01:49.389Z,43.10
2018-05-24T21:04:17.607Z,43.10
2018-05-24T21:06:45.845Z,43.30
2018-05-24T21:09:14.871Z,43.40
2018-05-24T21:11:43.111Z,43.40
2018-05-24T21:14:12.157Z,44.30
2018-05-24T21:16:40.410Z,43.60
2018-05-24T21:19:08.714Z,43.70
2018-05-24T21:21:36.928Z,43.80
2018-05-24T21:24:05.170Z,43.70
2018-05-24T21:26:33.426Z,43.80
2018-05-24T21:29:01.667Z,43.90
2018-05-24T21:31:30.693Z,44.00
2018-05-24T21:33:58.943Z,43.90
2018-05-24T21:36:27.968Z,44.20
2018-05-24T21:38:56.220Z,44.20
2018-05-24T21:41:25.228Z,44.40
2018-05-24T21:43:53.504Z,44.40
2018-05-24T21:46:21.739Z,44.50
2018-05-24T21:48:49.980Z,44.50
2018-05-24T21:51:18.284Z,44.50
2018-05-24T21:53:46.471Z,44.70
2018-05-24T21:56:14.728Z,44.80
2018-05-24T21:58:42.975Z,44.80
2018-05-24T22:01:11.615Z,44.90
2018-05-24T22:03:40.654Z,45.70
2018-05-24T22:06:08.884Z,45.00
2018-05-24T22:08:37.110Z,45.10
2018-05-24T22:11:05.426Z,45.10
2018-05-24T22:13:33.631Z,45.20
2018-05-24T22:16:02.659Z,45.40
2018-05-24T22:18:30.909Z,45.30
2018-05-24T22:20:59.144Z,45.60
2018-05-24T22:23:27.399Z,45.60
2018-05-24T22:25:55.656Z,45.70
2018-05-24T22:28:23.947Z,45.90
2018-05-24T22:30:52.204Z,46.00
2018-05-24T22:33:20.429Z,46.10
2018-05-24T22:35:48.678Z,46.20
2018-05-24T22:38:16.933Z,46.20
2018-05-24T22:40:45.192Z,46.30
2018-05-24T22:43:13.438Z,46.30
2018-05-24T22:45:41.697Z,46.50
2018-05-24T22:48:09.933Z,47.10
2018-05-24T22:50:38.205Z,46.60
2018-05-24T22:53:07.609Z,46.70
2018-05-24T22:55:35.872Z,46.60
2018-05-24T22:58:04.921Z,46.60
2018-05-24T23:00:33.196Z,46.60
2018-05-24T23:03:01.423Z,46.70
2018-05-24T23:05:29.659Z,46.70
2018-05-24T23:07:57.923Z,46.60
2018-05-24T23:10:26.160Z,46.80
2018-05-24T23:12:54.472Z,46.80
2018-05-24T23:15:22.730Z,46.90
2018-05-24T23:17:50.974Z,47.00
2018-05-24T23:20:19.994Z,47.10
2018-05-24T23:22:48.256Z,47.00
2018-05-24T23:25:16.504Z,47.10
2018-05-24T23:27:47.593Z,47.40
2018-05-24T23:30:15.824Z,47.50
2018-05-24T23:32:44.063Z,47.60
2018-05-24T23:35:12.329Z,47.80
2018-05-24T23:37:40.616Z,47.90
2018-05-24T23:40:08.837Z,48.00
2018-05-24T23:42:37.828Z,48.10
2018-05-24T23:45:06.873Z,48.20
2018-05-24T23:47:35.562Z,48.10
2018-05-24T23:50:03.769Z,48.20
2018-05-24T23:52:32.019Z,48.30
2018-05-24T23:55:00.253Z,48.50
2018-05-24T23:57:29.295Z,48.80
2018-05-24T23:59:57.511Z,48.80
